Time;durP1;ratioP1;P1;durP2;ratioP2;P2;SDS_P1;SDS_P2;PMS_P1;PMS_P2;Temp;Humidity;BMP_temperature;BMP_pressure;BME280_temperature;BME280_humidity;BME280_pressure;Samples;Min_cycle;Max_cycle;Signal;HPM_P1;HPM_P2
2023/10/02 00:03:32;;;;;;;28.87;15.50;;;17.10;1.00;;;;;;5013811;28;20563;-68
2023/10/02 00:06:02;;;;;;;19.63;13.17;;;17.10;1.00;;;;;;4980217;28;20425;-69
2023/10/02 00:08:32;;;;;;;20.80;13.67;;;17.10;1.00;;;;;;5013129;28;20459;-69
2023/10/02 00:14:18;;;;;;;26.17;14.57;;;17.10;1.00;;;;;;4999389;28;20414;-69
2023/10/02 00:16:59;;;;;;;25.37;15.37;;;17.20;1.00;;;;;;4991625;28;20478;-70
2023/10/02 00:19:38;;;;;;;22.43;14.80;;;17.20;1.00;;;;;;4993342;28;20463;-69
2023/10/02 00:22:34;;;;;;;20.23;14.27;;;17.20;1.00;;;;;;4992795;28;20439;-69
2023/10/02 00:25:00;;;;;;;17.23;12.83;;;17.20;1.00;;;;;;4991950;28;20484;-69
2023/10/02 00:27:30;;;;;;;25.70;15.77;;;17.20;1.00;;;;;;4993121;28;20546;-70
2023/10/02 00:29:58;;;;;;;24.53;14.90;;;17.20;1.00;;;;;;4975239;28;20491;-69
2023/10/02 00:32:26;;;;;;;25.43;14.50;;;17.20;1.00;;;;;;4975258;28;20498;-69
2023/10/02 00:34:53;;;;;;;25.10;14.80;;;17.20;1.00;;;;;;4959520;28;20511;-73
2023/10/02 00:37:19;;;;;;;28.30;14.47;;;17.20;1.00;;;;;;4993364;28;20899;-70
2023/10/02 00:39:52;;;;;;;24.03;15.00;;;17.20;1.00;;;;;;4958954;28;20485;-69
2023/10/02 00:44:54;;;;;;;22.83;13.90;;;17.20;1.00;;;;;;4993311;28;20396;-69
2023/10/02 00:47:50;;;;;;;26.97;14.17;;;17.20;1.00;;;;;;4991467;28;20924;-69
2023/10/02 00:50:24;;;;;;;31.53;15.77;;;17.20;1.00;;;;;;4991892;28;20404;-72
2023/10/02 00:53:03;;;;;;;23.60;15.00;;;17.20;1.00;;;;;;4959670;28;20451;-70
2023/10/02 00:55:32;;;;;;;29.93;16.70;;;17.20;1.00;;;;;;4993077;28;20482;-69
2023/10/02 00:58:08;;;;;;;26.70;16.40;;;17.20;1.00;;;;;;4976183;28;20412;-69
2023/10/02 01:00:42;;;;;;;27.87;14.43;;;17.20;1.00;;;;;;4954994;28;20956;-69
2023/10/02 01:03:16;;;;;;;24.50;15.37;;;17.20;1.00;;;;;;4961091;28;20440;-72
2023/10/02 01:05:51;;;;;;;23.93;15.87;;;17.10;1.00;;;;;;4992994;28;20432;-69
2023/10/02 01:08:42;;;;;;;26.67;14.47;;;17.20;1.00;;;;;;4977019;28;20478;-69
2023/10/02 01:11:13;;;;;;;26.43;14.87;;;17.20;1.00;;;;;;4977021;28;20447;-69
2023/10/02 01:13:40;;;;;;;28.20;15.57;;;17.20;1.00;;;;;;4959334;28;20527;-69
2023/10/02 01:16:09;;;;;;;27.23;13.70;;;17.20;1.00;;;;;;4957662;28;20462;-69
2023/10/02 01:18:40;;;;;;;27.33;14.83;;;17.20;1.00;;;;;;4991959;28;20443;-69
2023/10/02 01:21:11;;;;;;;32.70;14.30;;;17.20;1.00;;;;;;4990243;28;20474;-69
2023/10/02 01:24:16;;;;;;;21.40;13.80;;;17.30;1.00;;;;;;4979645;28;20474;-69
2023/10/02 01:26:43;;;;;;;22.80;14.80;;;17.30;1.00;;;;;;4982165;28;20482;-69
2023/10/02 01:29:11;;;;;;;24.37;15.60;;;17.30;1.00;;;;;;4962433;28;20419;-69
2023/10/02 01:31:44;;;;;;;24.60;14.90;;;17.30;1.00;;;;;;4974469;28;20840;-70
2023/10/02 01:37:00;;;;;;;24.93;15.73;;;17.20;1.00;;;;;;4994867;28;20836;-69
2023/10/02 01:39:28;;;;;;;27.70;15.00;;;17.20;1.00;;;;;;4977212;28;20967;-70
2023/10/02 01:41:54;;;;;;;27.80;16.27;;;17.20;1.00;;;;;;4978398;28;20537;-70
2023/10/02 01:44:24;;;;;;;23.57;14.03;;;17.20;1.00;;;;;;4996177;28;20508;-69
2023/10/02 01:46:52;;;;;;;25.57;15.73;;;17.20;1.00;;;;;;4978729;28;20669;-69
2023/10/02 01:49:26;;;;;;;24.07;15.30;;;17.20;1.00;;;;;;4979034;28;20420;-81
2023/10/02 01:52:01;;;;;;;24.93;14.27;;;17.20;1.00;;;;;;4978688;28;20790;-69
2023/10/02 01:54:29;;;;;;;28.77;15.27;;;17.20;1.00;;;;;;4996126;28;20415;-70
2023/10/02 01:56:57;;;;;;;32.00;16.20;;;17.20;1.00;;;;;;4978190;28;20614;-71
2023/10/02 01:59:25;;;;;;;27.60;15.40;;;17.20;1.00;;;;;;4995718;28;20463;-70
2023/10/02 02:01:57;;;;;;;28.90;15.70;;;17.20;1.00;;;;;;4961711;28;20566;-70
2023/10/02 02:04:30;;;;;;;27.63;15.70;;;17.20;1.00;;;;;;4976995;28;20439;-68
2023/10/02 02:07:15;;;;;;;29.83;15.63;;;17.20;1.00;;;;;;4979666;28;20478;-68
2023/10/02 02:09:43;;;;;;;27.67;16.90;;;17.20;1.00;;;;;;4978068;28;20780;-70
2023/10/02 02:12:13;;;;;;;24.43;15.07;;;17.10;1.00;;;;;;4978542;28;20428;-69
2023/10/02 02:14:50;;;;;;;28.53;15.13;;;17.10;1.00;;;;;;4978817;28;20432;-69
2023/10/02 02:17:27;;;;;;;21.90;15.77;;;17.10;1.00;;;;;;4976916;28;20502;-69
2023/10/02 02:20:43;;;;;;;23.73;15.77;;;17.00;1.00;;;;;;4993958;28;21283;-69
2023/10/02 02:22:51;;;;;;;28.80;16.03;;;17.00;1.00;;;;;;4992817;28;20436;-68
2023/10/02 02:25:26;;;;;;;24.00;16.10;;;17.00;1.00;;;;;;4995657;28;20416;-68
2023/10/02 02:27:55;;;;;;;24.73;15.63;;;17.00;1.00;;;;;;4964718;28;20538;-69
2023/10/02 02:30:23;;;;;;;30.33;16.50;;;17.00;1.00;;;;;;4991283;28;20448;-69
2023/10/02 02:32:54;;;;;;;24.40;15.40;;;17.00;1.00;;;;;;4977183;28;20424;-69
2023/10/02 02:35:22;;;;;;;27.70;16.47;;;17.10;1.00;;;;;;4978422;28;20401;-69
2023/10/02 02:37:50;;;;;;;26.37;15.73;;;17.00;1.00;;;;;;4995041;28;20507;-69
2023/10/02 02:40:28;;;;;;;29.87;16.93;;;17.00;1.00;;;;;;4976793;28;20928;-69
2023/10/02 02:42:56;;;;;;;21.37;15.50;;;17.00;1.00;;;;;;4995186;28;20399;-70
2023/10/02 02:45:31;;;;;;;24.03;15.93;;;17.00;1.00;;;;;;4959930;28;20457;-73
2023/10/02 02:48:07;;;;;;;30.33;16.00;;;17.00;1.00;;;;;;4963778;28;20543;-69
2023/10/02 02:50:46;;;;;;;28.60;15.80;;;17.00;1.00;;;;;;4994073;28;20475;-69
2023/10/02 02:53:23;;;;;;;25.30;15.50;;;17.00;1.00;;;;;;4977681;28;20423;-68
2023/10/02 02:56:18;;;;;;;32.33;17.20;;;17.00;1.00;;;;;;4964246;28;20415;-69
2023/10/02 02:58:48;;;;;;;29.10;17.23;;;17.00;1.00;;;;;;4994426;28;20554;-69
2023/10/02 03:01:23;;;;;;;32.93;17.50;;;17.00;1.00;;;;;;4976038;28;20515;-68
2023/10/02 03:03:53;;;;;;;23.87;16.20;;;17.00;1.00;;;;;;4977840;28;20975;-69
2023/10/02 03:06:24;;;;;;;27.37;16.80;;;17.00;1.00;;;;;;4994554;28;20411;-71
2023/10/02 03:08:52;;;;;;;22.60;16.17;;;17.00;1.00;;;;;;4960929;28;20416;-69
2023/10/02 03:11:32;;;;;;;25.63;17.17;;;17.00;1.00;;;;;;4976799;28;20429;-69
2023/10/02 03:14:14;;;;;;;27.17;16.37;;;17.00;1.00;;;;;;4977600;28;20400;-69
2023/10/02 03:16:45;;;;;;;21.63;15.80;;;17.00;1.00;;;;;;4962808;28;20432;-69
2023/10/02 03:19:19;;;;;;;20.57;15.73;;;17.00;1.00;;;;;;4978704;28;20499;-70
2023/10/02 03:21:47;;;;;;;29.17;16.73;;;16.90;1.00;;;;;;4992859;28;20440;-69
2023/10/02 03:24:18;;;;;;;25.60;15.67;;;16.90;1.00;;;;;;4977297;28;20423;-70
2023/10/02 03:26:52;;;;;;;24.13;16.40;;;16.90;1.00;;;;;;4961746;28;20554;-69
2023/10/02 03:29:22;;;;;;;25.00;17.17;;;17.00;1.00;;;;;;4994352;28;20412;-70
2023/10/02 03:31:51;;;;;;;25.57;16.90;;;17.00;1.00;;;;;;4977009;28;20427;-69
2023/10/02 03:34:29;;;;;;;26.20;16.70;;;17.00;1.00;;;;;;4994131;28;20400;-70
2023/10/02 03:37:14;;;;;;;25.30;16.43;;;16.90;1.00;;;;;;4992651;28;20424;-74
2023/10/02 03:39:59;;;;;;;28.00;18.30;;;16.90;1.00;;;;;;4976753;28;20435;-71
2023/10/02 03:42:33;;;;;;;26.33;17.30;;;17.00;1.00;;;;;;4993844;28;20488;-69
2023/10/02 03:45:04;;;;;;;25.50;16.20;;;17.00;1.00;;;;;;4962247;28;20408;-70
2023/10/02 03:47:31;;;;;;;29.00;15.73;;;17.00;1.00;;;;;;4976673;28;20459;-69
2023/10/02 03:50:00;;;;;;;26.53;16.40;;;17.00;1.00;;;;;;4959364;28;20412;-69
2023/10/02 03:52:30;;;;;;;22.87;15.67;;;17.00;1.00;;;;;;4976364;28;20444;-70
2023/10/02 03:54:56;;;;;;;22.77;15.67;;;17.00;1.00;;;;;;4976466;28;20427;-70
2023/10/02 04:00:28;;;;;;;29.67;17.10;;;17.00;1.00;;;;;;4950960;28;20473;-77
2023/10/02 04:02:57;;;;;;;25.90;16.97;;;17.00;1.00;;;;;;4969340;28;20522;-72
2023/10/02 04:05:43;;;;;;;27.73;17.80;;;16.90;1.00;;;;;;4992538;28;20404;-69
2023/10/02 04:08:17;;;;;;;34.50;17.60;;;16.90;1.00;;;;;;4978150;28;20801;-69
2023/10/02 04:10:55;;;;;;;26.90;16.00;;;16.90;1.00;;;;;;4992817;28;20502;-69
2023/10/02 04:13:45;;;;;;;22.10;15.80;;;16.90;1.00;;;;;;4977609;28;20418;-69
2023/10/02 04:16:30;;;;;;;25.67;15.87;;;16.90;1.00;;;;;;4976649;28;20832;-72
2023/10/02 04:19:00;;;;;;;25.97;16.90;;;16.90;1.00;;;;;;4975955;28;20420;-69
2023/10/02 04:21:33;;;;;;;23.77;15.97;;;16.90;1.00;;;;;;4976072;28;20495;-72
2023/10/02 04:23:59;;;;;;;22.43;15.37;;;16.80;1.00;;;;;;4976683;28;20475;-68
2023/10/02 04:26:28;;;;;;;24.83;15.83;;;16.90;1.00;;;;;;4992593;28;20416;-69
2023/10/02 04:29:48;;;;;;;24.03;16.70;;;16.80;1.00;;;;;;4976310;28;20395;-72
2023/10/02 04:32:04;;;;;;;21.53;14.83;;;16.80;1.00;;;;;;4973088;28;20439;-69
2023/10/02 04:34:31;;;;;;;25.20;15.30;;;16.80;1.00;;;;;;4978635;28;20384;-68
2023/10/02 04:36:57;;;;;;;30.13;17.47;;;16.90;1.00;;;;;;4976000;28;20431;-68
2023/10/02 04:45:16;;;;;;;24.33;14.80;;;16.90;1.00;;;;;;4977127;28;20735;-67
2023/10/02 04:47:43;;;;;;;24.73;15.33;;;16.90;1.00;;;;;;4992788;28;20546;-67
2023/10/02 04:52:58;;;;;;;27.73;15.70;;;17.00;1.00;;;;;;4993161;28;20412;-69
2023/10/02 04:55:32;;;;;;;23.60;15.60;;;17.00;1.00;;;;;;4993156;28;20913;-69
2023/10/02 04:58:09;;;;;;;27.70;15.63;;;16.90;1.00;;;;;;4980548;28;20526;-68
2023/10/02 05:00:35;;;;;;;27.87;16.10;;;16.90;1.00;;;;;;4995684;28;20944;-69
2023/10/02 05:03:09;;;;;;;20.83;15.10;;;16.90;1.00;;;;;;4979382;28;20527;-69
2023/10/02 05:05:48;;;;;;;26.50;15.00;;;16.90;1.00;;;;;;4996268;28;20420;-69
2023/10/02 05:09:11;;;;;;;30.30;16.77;;;16.80;1.00;;;;;;4980067;28;20821;-71
2023/10/02 05:11:46;;;;;;;26.37;16.07;;;16.80;1.00;;;;;;4983761;28;20487;-69
2023/10/02 05:14:13;;;;;;;30.23;16.37;;;16.80;6.20;;;;;;4996541;28;20415;-71
2023/10/02 05:16:42;;;;;;;32.37;16.73;;;16.80;5.50;;;;;;4963412;28;20427;-68
2023/10/02 05:19:14;;;;;;;22.80;15.23;;;16.80;4.30;;;;;;4979368;28;20412;-68
2023/10/02 05:21:50;;;;;;;25.20;16.37;;;16.80;9.60;;;;;;4978592;28;20435;-69
2023/10/02 05:24:18;;;;;;;29.77;15.83;;;16.80;11.00;;;;;;4980432;28;20420;-71
2023/10/02 05:26:46;;;;;;;26.87;17.27;;;16.90;14.90;;;;;;4996391;28;20913;-70
2023/10/02 05:29:17;;;;;;;28.73;16.43;;;16.80;10.00;;;;;;4977911;28;20463;-71
2023/10/02 05:31:46;;;;;;;22.33;14.73;;;16.80;11.20;;;;;;4977648;28;20980;-70
2023/10/02 05:34:23;;;;;;;27.40;16.37;;;16.80;11.50;;;;;;4996209;28;20897;-70
2023/10/02 05:39:41;;;;;;;26.40;14.80;;;16.80;14.90;;;;;;4980400;28;20486;-69
2023/10/02 05:42:14;;;;;;;25.57;16.10;;;16.90;15.40;;;;;;4979502;28;20474;-69
2023/10/02 05:44:44;;;;;;;26.50;17.20;;;16.90;13.00;;;;;;4994620;28;20419;-71
2023/10/02 05:47:15;;;;;;;31.03;16.50;;;16.80;12.50;;;;;;4979111;28;20468;-68
2023/10/02 05:49:49;;;;;;;23.87;15.70;;;16.90;14.00;;;;;;4978051;28;20424;-68
2023/10/02 05:52:23;;;;;;;22.30;14.50;;;16.90;11.80;;;;;;4979663;28;20447;-69
2023/10/02 05:54:55;;;;;;;27.50;16.90;;;16.90;8.70;;;;;;4979318;28;20423;-69
2023/10/02 05:57:31;;;;;;;31.07;15.87;;;16.90;10.10;;;;;;4978816;28;20436;-70
2023/10/02 06:00:00;;;;;;;27.37;17.43;;;16.90;8.80;;;;;;4962672;28;20431;-69
2023/10/02 06:02:28;;;;;;;23.40;16.03;;;16.90;7.20;;;;;;4978830;28;20470;-69
2023/10/02 06:05:04;;;;;;;28.10;14.90;;;17.00;6.60;;;;;;4978726;28;20419;-71
2023/10/02 06:07:51;;;;;;;28.47;16.50;;;17.00;6.20;;;;;;4979758;28;20459;-69
2023/10/02 06:10:30;;;;;;;26.63;16.60;;;17.00;3.40;;;;;;4980826;28;20404;-70
2023/10/02 06:13:06;;;;;;;28.53;15.80;;;17.00;1.00;;;;;;4980017;28;20431;-69
2023/10/02 06:15:52;;;;;;;27.73;15.27;;;17.00;1.00;;;;;;4979792;28;20419;-69
2023/10/02 06:18:29;;;;;;;29.27;16.13;;;17.00;1.00;;;;;;4980508;28;20475;-70
2023/10/02 06:21:03;;;;;;;24.67;15.60;;;17.00;1.00;;;;;;4948476;28;20451;-70
2023/10/02 06:23:37;;;;;;;31.20;15.87;;;17.10;1.00;;;;;;4979948;28;20428;-69
2023/10/02 06:26:10;;;;;;;30.10;14.77;;;17.00;1.00;;;;;;4977628;28;20428;-69
2023/10/02 06:29:22;;;;;;;29.77;15.83;;;17.10;1.00;;;;;;4966277;28;20558;-73
2023/10/02 06:31:58;;;;;;;28.47;15.67;;;17.10;1.00;;;;;;4993825;28;20519;-68
2023/10/02 06:34:36;;;;;;;24.57;16.23;;;17.10;1.00;;;;;;4978412;28;20470;-69
2023/10/02 06:37:11;;;;;;;28.60;15.77;;;17.10;1.00;;;;;;4979057;28;20412;-68
2023/10/02 06:39:40;;;;;;;26.33;14.87;;;17.20;1.00;;;;;;4992899;28;20487;-69
2023/10/02 06:42:19;;;;;;;27.40;16.00;;;17.20;1.00;;;;;;4977675;28;20459;-69
2023/10/02 06:44:54;;;;;;;25.10;14.77;;;17.30;1.00;;;;;;4977559;28;20917;-69
2023/10/02 06:47:29;;;;;;;25.50;16.47;;;17.20;1.00;;;;;;4978922;28;20455;-68
2023/10/02 06:50:02;;;;;;;24.83;15.10;;;17.20;1.00;;;;;;4977427;28;20415;-68
2023/10/02 06:52:34;;;;;;;27.77;15.37;;;17.30;1.00;;;;;;4978515;28;20467;-72
2023/10/02 06:55:03;;;;;;;27.80;15.80;;;17.30;1.00;;;;;;4961008;28;20774;-68
2023/10/02 06:57:32;;;;;;;26.97;16.60;;;17.30;1.00;;;;;;4995014;28;20476;-69
2023/10/02 07:00:02;;;;;;;27.27;15.57;;;17.30;1.00;;;;;;4976932;28;20424;-73
2023/10/02 07:02:29;;;;;;;21.07;14.43;;;17.40;1.00;;;;;;4961486;28;20840;-69
2023/10/02 07:04:56;;;;;;;29.10;16.90;;;17.40;1.00;;;;;;4973689;28;20436;-72
2023/10/02 07:07:25;;;;;;;28.20;16.30;;;17.40;1.00;;;;;;4977154;28;20468;-70
2023/10/02 07:10:08;;;;;;;23.77;14.53;;;17.40;1.00;;;;;;4975566;28;20470;-69
2023/10/02 07:12:40;;;;;;;26.47;15.13;;;17.40;1.00;;;;;;4977955;28;20447;-69
2023/10/02 07:15:22;;;;;;;28.33;15.60;;;17.40;1.00;;;;;;4989819;28;20440;-75
2023/10/02 07:17:50;;;;;;;25.97;15.07;;;17.40;1.00;;;;;;4975034;28;20534;-68
2023/10/02 07:20:20;;;;;;;27.57;15.00;;;17.40;1.00;;;;;;4956340;28;20424;-72
2023/10/02 07:22:47;;;;;;;28.03;17.00;;;17.40;1.00;;;;;;4974838;28;20443;-69
2023/10/02 07:25:24;;;;;;;27.83;17.57;;;17.40;1.00;;;;;;4956908;28;20514;-68
2023/10/02 07:27:57;;;;;;;30.53;15.87;;;17.40;1.00;;;;;;4959186;28;21023;-69
2023/10/02 07:30:26;;;;;;;22.10;14.60;;;17.40;1.00;;;;;;4957439;28;20405;-68
2023/10/02 07:32:53;;;;;;;28.33;17.23;;;17.50;1.00;;;;;;4974322;28;20425;-71
2023/10/02 07:35:23;;;;;;;26.13;15.80;;;17.50;1.00;;;;;;4974772;28;20456;-69
2023/10/02 07:38:09;;;;;;;27.37;17.23;;;17.60;1.00;;;;;;4941851;28;20429;-69
2023/10/02 07:40:48;;;;;;;26.50;15.33;;;17.60;1.00;;;;;;4959349;28;20417;-70
2023/10/02 07:43:23;;;;;;;31.53;16.30;;;17.70;1.00;;;;;;4974747;28;20956;-69
2023/10/02 07:46:02;;;;;;;31.50;17.37;;;17.80;1.00;;;;;;4961232;28;20483;-69
2023/10/02 07:48:33;;;;;;;25.17;15.30;;;17.80;1.00;;;;;;4993185;28;20812;-69
2023/10/02 07:51:00;;;;;;;30.90;16.83;;;17.80;1.00;;;;;;4975568;28;20468;-68
2023/10/02 07:53:39;;;;;;;25.20;17.20;;;17.90;1.00;;;;;;4992006;28;20796;-69
2023/10/02 07:56:11;;;;;;;28.37;17.27;;;17.90;1.00;;;;;;4956929;28;20512;-69
2023/10/02 07:58:41;;;;;;;27.13;15.50;;;17.90;1.00;;;;;;4983343;28;20432;-69
2023/10/02 08:01:13;;;;;;;28.70;16.20;;;18.00;1.00;;;;;;4993222;28;20437;-69
2023/10/02 08:03:44;;;;;;;28.43;15.53;;;18.00;1.00;;;;;;4977020;28;20482;-69
2023/10/02 08:11:50;;;;;;;31.53;17.40;;;18.10;1.00;;;;;;4978879;28;20532;-71
2023/10/02 08:14:38;;;;;;;28.40;16.67;;;18.20;1.00;;;;;;4993979;28;20520;-69
2023/10/02 08:17:19;;;;;;;24.97;16.70;;;18.20;1.00;;;;;;4993873;28;20467;-69
2023/10/02 08:19:54;;;;;;;28.80;16.53;;;18.30;1.00;;;;;;4993123;28;20765;-70
2023/10/02 08:22:44;;;;;;;29.10;18.07;;;18.50;1.00;;;;;;4994041;28;20526;-69
2023/10/02 08:25:13;;;;;;;34.67;17.67;;;18.60;1.00;;;;;;4992961;28;20926;-70
2023/10/02 08:27:55;;;;;;;25.77;16.27;;;18.70;1.00;;;;;;4993659;28;20542;-69
2023/10/02 08:30:31;;;;;;;32.33;17.40;;;18.80;1.00;;;;;;4992846;28;20404;-70
2023/10/02 08:33:18;;;;;;;29.00;16.47;;;18.90;1.00;;;;;;4981947;28;20404;-69
2023/10/02 08:35:47;;;;;;;28.93;15.50;;;18.90;99.90;;;;;;4997751;28;20400;-70
2023/10/02 08:38:23;;;;;;;29.27;14.07;;;19.10;99.90;;;;;;4997787;28;20499;-69
2023/10/02 08:41:03;;;;;;;30.13;17.10;;;19.30;99.90;;;;;;4996376;28;20411;-71
2023/10/02 08:43:32;;;;;;;29.37;15.20;;;19.40;99.90;;;;;;4997514;28;20404;-69
2023/10/02 08:45:59;;;;;;;28.30;14.50;;;19.60;99.90;;;;;;4997537;28;20478;-69
2023/10/02 08:48:25;;;;;;;30.07;15.37;;;19.60;99.90;;;;;;4997539;28;20538;-70
2023/10/02 08:50:58;;;;;;;35.43;16.43;;;19.70;99.90;;;;;;4996732;28;20423;-69
2023/10/02 08:53:25;;;;;;;30.93;16.47;;;19.70;99.90;;;;;;4997532;28;20898;-70
2023/10/02 08:56:00;;;;;;;32.50;14.90;;;19.70;99.90;;;;;;4997451;28;20408;-69
2023/10/02 08:58:27;;;;;;;24.43;15.40;;;19.80;99.90;;;;;;4979792;28;20414;-72
2023/10/02 09:03:42;;;;;;;25.00;15.00;;;19.90;99.90;;;;;;4997230;28;20786;-69
2023/10/02 09:06:27;;;;;;;28.73;16.97;;;19.90;99.90;;;;;;4997331;28;20491;-69
2023/10/02 09:11:44;;;;;;;28.23;16.67;;;20.00;99.90;;;;;;4996273;28;20420;-69
2023/10/02 09:14:22;;;;;;;31.50;15.27;;;20.00;99.90;;;;;;4997423;28;20462;-71
2023/10/02 09:19:48;;;;;;;27.97;16.13;;;20.30;99.90;;;;;;4995443;28;20400;-69
2023/10/02 09:22:16;;;;;;;26.60;15.10;;;20.40;99.90;;;;;;4997018;28;20428;-70
2023/10/02 09:24:57;;;;;;;26.70;15.63;;;20.50;99.90;;;;;;4997040;28;20439;-70
2023/10/02 09:27:24;;;;;;;23.20;14.03;;;20.60;99.90;;;;;;4996897;28;20538;-70
2023/10/02 09:30:15;;;;;;;25.03;14.57;;;20.60;99.90;;;;;;4995999;28;20404;-68
2023/10/02 09:33:05;;;;;;;32.00;13.80;;;20.70;99.90;;;;;;4981977;28;20524;-70
2023/10/02 09:35:39;;;;;;;24.10;14.77;;;20.80;99.90;;;;;;4995481;28;20416;-70
2023/10/02 09:38:22;;;;;;;30.87;14.47;;;20.90;99.90;;;;;;4982456;28;20424;-69
2023/10/02 09:43:32;;;;;;;20.23;13.10;;;21.00;99.90;;;;;;4979772;28;20490;-73
2023/10/02 09:46:00;;;;;;;24.37;13.20;;;21.20;99.90;;;;;;4962908;28;20821;-69
2023/10/02 09:48:46;;;;;;;25.73;12.90;;;21.50;99.90;;;;;;4996257;28;20456;-68
2023/10/02 09:51:30;;;;;;;18.43;12.10;;;21.60;99.90;;;;;;4995730;28;20422;-68
2023/10/02 09:54:13;;;;;;;23.30;13.97;;;21.80;99.90;;;;;;4996213;28;20491;-71
2023/10/02 09:57:05;;;;;;;24.07;14.83;;;21.90;99.90;;;;;;4996270;28;20408;-68
2023/10/02 09:59:48;;;;;;;22.50;14.20;;;22.00;99.90;;;;;;4995970;28;20409;-81
2023/10/02 10:10:47;;;;;;;18.70;12.80;;;21.80;99.90;;;;;;4995067;28;21248;-70
2023/10/02 10:13:37;;;;;;;25.23;12.30;;;21.90;99.90;;;;;;4994661;28;20432;-73
2023/10/02 10:16:23;;;;;;;23.20;13.00;;;22.20;99.90;;;;;;4978639;28;20416;-69
2023/10/02 10:21:55;;;;;;;30.97;13.20;;;22.60;96.70;;;;;;4994993;28;20468;-69
2023/10/02 10:24:56;;;;;;;20.30;12.10;;;22.70;96.70;;;;;;4996079;28;20909;-69
2023/10/02 10:27:41;;;;;;;17.70;11.93;;;22.80;95.10;;;;;;4979957;28;20582;-76
2023/10/02 10:30:28;;;;;;;24.10;12.10;;;22.90;90.30;;;;;;4994823;28;20554;-69
2023/10/02 10:33:19;;;;;;;23.73;11.17;;;22.90;69.40;;;;;;4995802;28;20428;-69
2023/10/02 10:35:57;;;;;;;26.23;11.20;;;22.90;57.80;;;;;;4995572;28;20448;-69
2023/10/02 10:38:34;;;;;;;18.20;10.27;;;22.70;36.90;;;;;;4995913;28;20411;-69
2023/10/02 10:41:27;;;;;;;25.90;11.47;;;22.70;33.20;;;;;;4994670;28;20507;-69
2023/10/02 10:43:56;;;;;;;22.83;11.87;;;22.50;26.30;;;;;;4994606;28;20416;-70
2023/10/02 10:46:24;;;;;;;18.63;10.50;;;22.40;21.60;;;;;;4978208;28;20451;-69
2023/10/02 10:49:10;;;;;;;18.60;10.87;;;22.40;23.10;;;;;;4995440;28;20460;-70
2023/10/02 10:51:36;;;;;;;18.53;10.73;;;22.40;22.10;;;;;;4961380;28;20440;-69
2023/10/02 10:54:37;;;;;;;18.43;11.30;;;22.20;17.70;;;;;;4994219;28;20420;-69
2023/10/02 10:57:22;;;;;;;20.10;10.37;;;22.10;19.90;;;;;;4981081;28;20447;-69
2023/10/02 11:00:24;;;;;;;24.07;11.60;;;22.10;27.50;;;;;;4979603;28;20503;-69
2023/10/02 11:02:57;;;;;;;23.60;12.23;;;22.20;27.70;;;;;;4979578;28;20964;-70
2023/10/02 11:05:25;;;;;;;17.83;10.90;;;22.20;25.90;;;;;;4994718;28;20419;-68
2023/10/02 11:08:25;;;;;;;27.33;11.77;;;22.30;23.80;;;;;;4978884;28;20456;-71
2023/10/02 11:11:09;;;;;;;19.53;11.00;;;22.40;23.80;;;;;;4994136;28;20424;-69
2023/10/02 11:14:02;;;;;;;24.20;11.97;;;22.50;21.60;;;;;;4994950;28;20424;-68
2023/10/02 11:16:50;;;;;;;21.13;11.90;;;22.70;29.30;;;;;;4993074;28;20774;-69
2023/10/02 11:22:14;;;;;;;25.10;13.10;;;22.70;11.30;;;;;;4993345;28;20777;-69
2023/10/02 11:24:53;;;;;;;24.13;14.27;;;22.80;12.90;;;;;;4994483;28;20420;-68
2023/10/02 11:27:20;;;;;;;24.20;12.13;;;22.90;6.60;;;;;;4977135;28;20885;-69
2023/10/02 11:30:02;;;;;;;29.87;13.07;;;22.80;4.80;;;;;;4976516;28;20894;-69
2023/10/02 11:32:58;;;;;;;19.80;12.27;;;22.90;2.30;;;;;;4978889;28;20431;-68
2023/10/02 11:35:37;;;;;;;28.67;13.60;;;22.90;1.00;;;;;;4994713;28;20419;-68
2023/10/02 11:38:07;;;;;;;21.90;13.40;;;22.90;1.00;;;;;;4979094;28;20436;-69
2023/10/02 11:40:34;;;;;;;18.43;11.27;;;22.80;1.00;;;;;;4993426;28;20415;-69
2023/10/02 11:43:01;;;;;;;23.40;12.93;;;22.80;2.20;;;;;;4993108;28;20420;-70
2023/10/02 11:45:32;;;;;;;20.70;12.90;;;23.00;8.70;;;;;;4976506;28;20463;-69
2023/10/02 11:47:58;;;;;;;20.43;11.70;;;23.20;8.10;;;;;;4977730;28;20960;-69
2023/10/02 11:50:24;;;;;;;23.03;13.10;;;23.30;3.50;;;;;;4993157;28;20499;-68
2023/10/02 11:52:52;;;;;;;23.03;12.20;;;23.20;1.00;;;;;;4976848;28;20575;-68
2023/10/02 11:55:18;;;;;;;27.60;11.27;;;22.80;1.00;;;;;;4994451;28;20837;-69
2023/10/02 11:57:51;;;;;;;20.50;13.20;;;22.60;1.00;;;;;;4976944;28;20478;-69
2023/10/02 12:00:20;;;;;;;23.03;11.70;;;22.50;1.00;;;;;;4993005;28;20771;-69
2023/10/02 12:02:47;;;;;;;20.43;13.03;;;22.40;1.00;;;;;;4960175;28;20470;-69
2023/10/02 12:05:14;;;;;;;22.13;12.10;;;22.30;1.00;;;;;;4976661;28;20491;-69
2023/10/02 12:07:41;;;;;;;25.67;12.77;;;22.40;2.70;;;;;;4976827;28;20471;-69
2023/10/02 12:10:09;;;;;;;25.93;13.70;;;22.40;6.70;;;;;;4992224;28;20471;-69
2023/10/02 12:12:36;;;;;;;23.50;12.90;;;22.70;13.80;;;;;;4993495;28;20475;-69
2023/10/02 12:15:03;;;;;;;33.40;15.27;;;22.90;13.40;;;;;;4976768;28;20408;-69
2023/10/02 12:17:31;;;;;;;18.77;12.70;;;23.00;9.00;;;;;;4976610;28;20515;-69
2023/10/02 12:19:58;;;;;;;29.83;14.07;;;23.00;2.10;;;;;;4992137;28;20416;-73
2023/10/02 12:22:26;;;;;;;25.67;13.30;;;23.10;3.30;;;;;;4959889;28;20459;-69
2023/10/02 12:24:53;;;;;;;20.00;13.07;;;23.30;4.70;;;;;;4961077;28;20416;-69
2023/10/02 12:27:20;;;;;;;22.57;14.47;;;23.40;1.00;;;;;;4976805;28;20491;-68
2023/10/02 12:29:47;;;;;;;19.87;13.70;;;23.40;1.00;;;;;;4959887;28;20913;-69
2023/10/02 12:32:16;;;;;;;25.33;14.43;;;23.40;1.00;;;;;;4960639;28;20527;-68
2023/10/02 12:34:41;;;;;;;19.33;13.20;;;23.60;1.00;;;;;;4993901;28;20411;-69
2023/10/02 12:37:09;;;;;;;22.00;13.10;;;23.80;1.00;;;;;;4993902;28;20471;-69
2023/10/02 12:39:35;;;;;;;21.53;14.57;;;24.20;1.00;;;;;;4958798;28;20184;-70
2023/10/02 12:42:04;;;;;;;20.13;13.30;;;24.30;1.00;;;;;;4960383;28;20440;-69
2023/10/02 12:44:36;;;;;;;22.97;12.97;;;24.60;1.00;;;;;;4976431;28;20199;-70
2023/10/02 12:47:03;;;;;;;23.80;13.20;;;24.70;1.00;;;;;;4993686;28;20431;-68
2023/10/02 12:49:30;;;;;;;19.53;13.20;;;24.50;1.00;;;;;;4960128;28;20507;-68
2023/10/02 12:51:57;;;;;;;23.10;12.77;;;24.40;1.00;;;;;;4992863;28;20428;-69
2023/10/02 12:54:24;;;;;;;20.40;12.30;;;24.10;1.00;;;;;;4960947;28;20431;-70
2023/10/02 12:56:50;;;;;;;19.73;12.30;;;24.00;1.00;;;;;;4993035;28;20506;-69
2023/10/02 12:59:18;;;;;;;23.03;13.67;;;23.90;1.00;;;;;;4976554;28;20166;-70
2023/10/02 13:01:46;;;;;;;18.70;11.70;;;23.80;1.00;;;;;;4975875;28;20444;-69
2023/10/02 13:04:12;;;;;;;19.80;12.53;;;23.60;1.00;;;;;;4993565;28;20411;-68
2023/10/02 13:06:39;;;;;;;18.37;11.27;;;23.40;1.00;;;;;;4960076;28;20763;-68
2023/10/02 13:09:18;;;;;;;19.63;11.20;;;23.30;1.00;;;;;;4960425;28;20542;-69
2023/10/02 13:11:45;;;;;;;24.23;12.07;;;23.20;1.00;;;;;;4992871;28;20423;-69
2023/10/02 13:14:12;;;;;;;17.80;11.60;;;23.00;1.00;;;;;;4960229;28;20423;-69
2023/10/02 13:16:42;;;;;;;20.50;11.37;;;23.00;1.00;;;;;;4976024;28;20669;-68
2023/10/02 13:19:09;;;;;;;18.00;11.80;;;22.80;1.00;;;;;;4980081;28;20781;-69
2023/10/02 13:21:40;;;;;;;16.03;11.80;;;22.80;1.00;;;;;;4995133;28;20442;-68
2023/10/02 13:24:25;;;;;;;17.83;11.00;;;22.70;1.00;;;;;;4976722;28;20522;-68
2023/10/02 13:26:50;;;;;;;16.00;10.87;;;22.70;1.00;;;;;;4996965;28;20407;-69
2023/10/02 13:29:18;;;;;;;17.70;11.20;;;22.60;1.00;;;;;;4963580;28;20412;-70
2023/10/02 13:31:47;;;;;;;16.37;10.90;;;22.60;1.00;;;;;;4978872;28;20987;-68
2023/10/02 13:34:14;;;;;;;20.67;11.40;;;22.40;1.00;;;;;;4997105;28;20405;-69
2023/10/02 13:36:41;;;;;;;18.10;10.73;;;22.20;1.00;;;;;;4962995;28;20424;-69
2023/10/02 13:39:15;;;;;;;22.67;11.10;;;22.10;1.00;;;;;;4979858;28;20419;-68
2023/10/02 13:41:42;;;;;;;18.30;10.27;;;22.20;1.00;;;;;;4963442;28;20448;-68
2023/10/02 13:44:09;;;;;;;16.83;10.77;;;22.20;1.00;;;;;;4996553;28;20459;-68
2023/10/02 13:46:38;;;;;;;19.53;10.60;;;22.10;1.00;;;;;;4963469;28;20832;-69
2023/10/02 13:49:05;;;;;;;16.00;9.60;;;22.00;1.00;;;;;;4979645;28;20471;-70
2023/10/02 13:51:32;;;;;;;15.87;9.33;;;21.90;1.00;;;;;;4961679;28;20446;-68
2023/10/02 13:53:59;;;;;;;18.33;10.13;;;21.90;1.00;;;;;;4963036;28;20411;-69
2023/10/02 13:56:32;;;;;;;15.30;9.70;;;21.80;1.00;;;;;;4962782;28;20913;-69
2023/10/02 13:58:59;;;;;;;14.83;10.17;;;21.70;1.00;;;;;;4996739;28;20381;-68
2023/10/02 14:01:26;;;;;;;17.37;8.97;;;21.80;1.00;;;;;;4962077;28;20881;-69
2023/10/02 14:03:54;;;;;;;15.30;9.67;;;21.80;1.00;;;;;;4963014;28;20960;-69
2023/10/02 14:06:24;;;;;;;13.93;10.37;;;21.70;1.00;;;;;;4963249;28;20925;-69